Time;durP1;ratioP1;P1;durP2;ratioP2;P2;SDS_P1;SDS_P2;PMS_P1;PMS_P2;Temp;Humidity;BMP_temperature;BMP_pressure;BME280_temperature;BME280_humidity;BME280_pressure;Samples;Min_cycle;Max_cycle;Signal;HPM_P1;HPM_P2
2021/08/14 00:02:13;;;;;;;;;;;;;;;19.75;64.90;100661.06;5074007;28;20551;-66
2021/08/14 00:04:40;;;;;;;22.92;9.50;;;;;;;19.78;65.13;100661.22;5072566;28;19921;-66
2021/08/14 00:07:07;;;;;;;25.08;10.48;;;;;;;19.65;65.14;100646.09;5073747;28;20075;-66
2021/08/14 00:09:34;;;;;;;31.60;10.75;;;;;;;19.61;65.03;100645.06;5072389;28;20080;-66
2021/08/14 00:12:03;;;;;;;30.05;10.63;;;;;;;19.62;65.25;100641.09;5055780;28;20076;-66
2021/08/14 00:14:30;;;;;;;28.33;10.88;;;;;;;19.64;65.15;100644.44;5073503;28;20562;-66
2021/08/14 00:16:57;;;;;;;29.98;12.05;;;;;;;19.61;65.37;100649.91;5073499;28;20492;-66
2021/08/14 00:19:24;;;;;;;31.77;11.68;;;;;;;19.54;65.10;100644.78;5072549;28;20171;-66
2021/08/14 00:21:51;;;;;;;33.47;12.63;;;;;;;19.47;65.32;100630.31;5064108;28;20041;-66
2021/08/14 00:24:18;;;;;;;32.72;11.57;;;;;;;19.59;65.69;100647.44;5053308;28;20081;-65
2021/08/14 00:26:45;;;;;;;29.42;12.20;;;;;;;19.62;65.92;100640.25;5052897;28;20446;-65
2021/08/14 00:29:11;;;;;;;25.23;12.13;;;;;;;19.61;65.66;100639.41;5053243;28;20107;-65
2021/08/14 00:31:39;;;;;;;35.33;12.68;;;;;;;19.64;65.98;100643.59;5053257;28;20060;-66
2021/08/14 00:34:05;;;;;;;35.90;11.75;;;;;;;19.68;65.94;100644.59;5035762;28;20120;-66
2021/08/14 00:36:32;;;;;;;37.78;12.40;;;;;;;19.68;65.79;100643.75;5036815;28;20128;-66
2021/08/14 00:38:59;;;;;;;35.28;12.07;;;;;;;19.60;65.94;100637.75;5053430;28;20548;-66
2021/08/14 00:41:29;;;;;;;26.95;10.88;;;;;;;19.56;65.99;100625.44;5053418;28;20140;-66
2021/08/14 00:44:02;;;;;;;29.50;11.20;;;;;;;19.59;65.53;100641.78;5052972;28;20135;-66
2021/08/14 00:46:30;;;;;;;29.98;10.80;;;;;;;19.52;65.61;100634.94;5065997;28;20127;-66
2021/08/14 00:48:58;;;;;;;33.65;11.38;;;;;;;19.51;65.68;100639.78;5072333;28;20523;-66
2021/08/14 00:51:26;;;;;;;30.67;11.40;;;;;;;19.43;65.53;100626.50;5067528;28;20576;-66
2021/08/14 00:53:52;;;;;;;29.45;11.07;;;;;;;19.48;65.88;100646.13;5078960;28;20088;-66
2021/08/14 00:56:20;;;;;;;27.05;11.52;;;;;;;19.44;65.63;100642.31;5066381;28;20409;-66
2021/08/14 00:58:50;;;;;;;29.35;11.63;;;;;;;19.39;65.60;100631.19;5052780;28;20049;-66
2021/08/14 01:01:18;;;;;;;30.35;11.85;;;;;;;19.28;65.83;100604.38;5052763;28;20049;-66
2021/08/14 01:03:47;;;;;;;26.48;11.30;;;;;;;19.34;65.72;100622.84;5052732;28;20052;-66
2021/08/14 01:06:15;;;;;;;25.15;11.80;;;;;;;19.31;65.66;100623.53;5061211;28;20076;-66
2021/08/14 01:08:42;;;;;;;32.42;11.93;;;;;;;19.25;65.55;100613.53;5072238;28;20128;-66
2021/08/14 01:11:11;;;;;;;26.20;10.95;;;;;;;19.01;65.91;100574.50;5072409;28;20055;-66
2021/08/14 01:13:39;;;;;;;31.15;12.07;;;;;;;19.22;65.98;100611.41;5071418;28;20096;-66
2021/08/14 01:16:07;;;;;;;30.08;12.27;;;;;;;19.26;66.07;100623.72;5071881;28;20049;-66
2021/08/14 01:18:39;;;;;;;23.23;11.05;;;;;;;19.24;66.16;100628.88;5072516;28;20045;-66
2021/08/14 01:21:06;;;;;;;27.05;10.75;;;;;;;19.24;65.82;100617.56;5072553;28;20076;-66
2021/08/14 01:23:33;;;;;;;22.95;11.25;;;;;;;19.21;66.04;100623.88;5071439;28;20123;-66
2021/08/14 01:26:07;;;;;;;27.05;11.07;;;;;;;19.19;65.88;100615.75;5072184;28;20106;-66
2021/08/14 01:28:36;;;;;;;27.75;11.02;;;;;;;19.19;65.81;100615.75;5072218;28;20059;-66
2021/08/14 01:31:05;;;;;;;28.23;10.75;;;;;;;19.17;65.80;100624.56;5053334;28;20233;-66
2021/08/14 01:33:34;;;;;;;23.00;10.30;;;;;;;19.14;66.20;100613.94;5062792;28;20048;-66
2021/08/14 01:36:05;;;;;;;26.40;10.13;;;;;;;19.02;65.93;100608.13;5072248;28;20465;-66
2021/08/14 01:38:32;;;;;;;22.88;9.80;;;;;;;18.99;65.97;100613.63;5052997;28;20072;-66
2021/08/14 01:40:59;;;;;;;28.77;11.07;;;;;;;19.03;66.16;100618.28;5052218;28;20072;-66
2021/08/14 01:43:26;;;;;;;30.10;11.73;;;;;;;18.81;65.83;100596.69;5064549;28;20052;-67
2021/08/14 01:45:53;;;;;;;22.95;9.98;;;;;;;18.60;65.78;100558.91;5070863;28;20152;-67
2021/08/14 01:48:20;;;;;;;21.10;9.20;;;;;;;18.93;66.01;100618.63;5052001;28;20065;-66
2021/08/14 01:50:47;;;;;;;29.05;10.25;;;;;;;18.93;65.75;100630.78;5051909;28;20087;-67
2021/08/14 01:53:14;;;;;;;25.23;9.45;;;;;;;18.91;65.72;100635.13;5051830;28;20133;-67
2021/08/14 01:55:41;;;;;;;23.85;9.90;;;;;;;18.87;65.95;100632.13;5034311;28;20488;-67
2021/08/14 01:58:07;;;;;;;25.52;10.93;;;;;;;18.84;66.20;100638.47;5051661;28;20132;-67
2021/08/14 02:00:34;;;;;;;25.63;10.68;;;;;;;18.80;66.42;100642.28;5068836;28;20139;-67
2021/08/14 02:03:01;;;;;;;23.73;10.80;;;;;;;18.82;66.33;100646.44;5069743;28;20048;-66
2021/08/14 02:05:28;;;;;;;29.60;11.77;;;;;;;18.83;66.58;100644.44;5052057;28;20106;-66
2021/08/14 02:07:55;;;;;;;27.63;10.75;;;;;;;18.76;66.41;100629.97;5051927;28;20096;-66
2021/08/14 02:10:22;;;;;;;38.60;11.07;;;;;;;18.83;66.48;100631.13;5034213;28;20068;-66
2021/08/14 02:12:49;;;;;;;75.40;12.32;;;;;;;18.74;66.85;100609.69;5062876;28;20479;-66
2021/08/14 02:15:16;;;;;;;110.20;14.13;;;;;;;18.86;66.86;100629.63;5071785;28;20056;-66
2021/08/14 02:17:43;;;;;;;27.88;10.43;;;;;;;18.87;67.32;100619.97;5072105;28;20135;-65
2021/08/14 02:20:10;;;;;;;29.77;9.88;;;;;;;18.90;67.21;100613.63;5067395;28;20144;-66
2021/08/14 02:22:37;;;;;;;26.10;10.45;;;;;;;18.86;67.06;100606.97;5051703;28;20134;-66
2021/08/14 02:25:04;;;;;;;25.98;10.05;;;;;;;18.83;67.07;100607.66;5050478;28;20132;-66
2021/08/14 02:27:31;;;;;;;28.17;11.23;;;;;;;18.80;67.15;100602.66;5063324;28;20128;-66
2021/08/14 02:29:58;;;;;;;28.27;11.65;;;;;;;18.90;67.09;100619.28;5071982;28;20220;-66
2021/08/14 02:32:25;;;;;;;46.08;11.23;;;;;;;18.79;67.07;100603.84;5053984;28;20127;-66
2021/08/14 02:34:52;;;;;;;42.45;11.52;;;;;;;18.89;67.11;100617.63;5070423;28;20136;-66
2021/08/14 02:37:19;;;;;;;94.32;12.95;;;;;;;18.82;67.12;100606.81;5066251;28;20073;-66
2021/08/14 02:39:45;;;;;;;63.25;13.07;;;;;;;18.88;67.43;100621.66;5052897;28;20051;-67
2021/08/14 02:42:12;;;;;;;43.90;11.57;;;;;;;18.86;67.42;100598.50;5071946;28;20123;-66
2021/08/14 02:44:39;;;;;;;36.95;10.98;;;;;;;18.86;67.33;100606.97;5071365;28;20055;-66
2021/08/14 02:47:06;;;;;;;25.63;10.85;;;;;;;18.83;67.02;100618.97;5070688;28;20079;-66
2021/08/14 02:49:33;;;;;;;24.05;10.32;;;;;;;18.82;67.08;100620.97;5072496;28;20437;-66
2021/08/14 02:52:00;;;;;;;19.48;9.35;;;;;;;18.80;67.37;100608.31;5074998;28;20055;-66
2021/08/14 02:54:26;;;;;;;45.90;10.23;;;;;;;18.77;67.32;100608.97;5073561;28;20084;-66
2021/08/14 02:56:53;;;;;;;20.15;8.90;;;;;;;18.75;67.10;100611.34;5073899;28;20059;-66
2021/08/14 02:59:20;;;;;;;22.58;9.77;;;;;;;18.69;67.14;100605.81;5075169;28;20098;-65
2021/08/14 03:01:47;;;;;;;17.63;8.55;;;;;;;18.72;66.98;100609.16;5075226;28;20141;-66
2021/08/14 03:04:14;;;;;;;43.80;10.25;;;;;;;18.63;67.04;100593.03;5073856;28;20049;-66
2021/08/14 03:06:41;;;;;;;20.45;9.20;;;;;;;18.34;67.44;100556.91;5074834;28;20128;-66
2021/08/14 03:09:08;;;;;;;23.48;9.63;;;;;;;18.58;67.36;100600.84;5074751;28;20079;-66
2021/08/14 03:11:38;;;;;;;23.02;9.00;;;;;;;18.58;66.96;100607.31;5067865;28;20135;-66
2021/08/14 03:14:05;;;;;;;;;;;;;;;18.51;67.06;100600.50;5055397;28;20048;-66
2021/08/14 03:16:32;;;;;;;20.42;9.52;;;;;;;18.40;66.99;100588.69;5054640;28;20044;-66
2021/08/14 03:18:59;;;;;;;25.20;9.10;;;;;;;18.47;67.10;100594.69;5067656;28;20415;-66
2021/08/14 03:21:26;;;;;;;21.75;10.07;;;;;;;18.45;67.13;100597.00;5073744;28;20084;-66
2021/08/14 03:23:52;;;;;;;21.90;8.57;;;;;;;18.43;66.84;100605.00;5074790;28;20148;-66
2021/08/14 03:26:19;;;;;;;22.25;8.90;;;;;;;18.42;66.83;100606.16;5074612;28;20164;-66
2021/08/14 03:28:46;;;;;;;18.63;9.82;;;;;;;18.32;66.96;100600.81;5073529;28;20072;-67
2021/08/14 03:31:13;;;;;;;19.20;9.15;;;;;;;18.27;67.00;100595.34;5073976;28;20048;-66
2021/08/14 03:33:40;;;;;;;20.70;10.07;;;;;;;18.36;67.22;100611.16;5074314;28;20044;-66
2021/08/14 03:36:07;;;;;;;21.25;9.82;;;;;;;18.29;67.12;100598.66;5073525;28;20131;-66
2021/08/14 03:38:34;;;;;;;22.27;9.40;;;;;;;18.33;67.19;100611.81;5058570;28;20124;-66
2021/08/14 03:41:00;;;;;;;19.17;9.32;;;;;;;18.18;67.19;100582.00;5054097;28;20128;-66
2021/08/14 03:43:27;;;;;;;16.52;8.73;;;;;;;18.31;67.07;100591.50;5054127;28;20129;-66
2021/08/14 03:45:54;;;;;;;17.80;8.88;;;;;;;18.30;67.45;100583.38;5054513;28;20128;-66
2021/08/14 03:48:21;;;;;;;18.27;9.05;;;;;;;18.23;67.30;100570.56;5074378;28;20124;-66
2021/08/14 03:50:48;;;;;;;17.35;8.40;;;;;;;18.26;67.11;100573.91;5074020;28;20131;-66
2021/08/14 03:53:15;;;;;;;21.40;8.57;;;;;;;18.29;67.10;100581.69;5078079;28;20047;-66
2021/08/14 03:55:43;;;;;;;15.90;9.18;;;;;;;17.99;67.24;100533.47;5094514;28;20131;-66
2021/08/14 03:58:09;;;;;;;17.33;9.18;;;;;;;18.24;67.13;100577.03;5094120;28;20091;-66
2021/08/14 04:00:37;;;;;;;18.13;9.48;;;;;;;18.19;67.14;100578.03;5070197;28;20080;-66
2021/08/14 04:03:04;;;;;;;16.55;9.02;;;;;;;18.25;67.58;100581.53;5062697;28;20048;-66
2021/08/14 04:05:31;;;;;;;14.88;7.78;;;;;;;18.25;67.14;100595.66;5053758;28;20114;-66
2021/08/14 04:07:58;;;;;;;14.60;7.65;;;;;;;18.23;67.12;100596.00;5053708;28;20045;-66
2021/08/14 04:10:25;;;;;;;16.35;7.57;;;;;;;18.21;67.48;100592.66;5053717;28;20501;-66
2021/08/14 04:12:52;;;;;;;14.73;7.72;;;;;;;17.81;67.43;100534.59;5053519;28;20136;-66
2021/08/14 04:15:19;;;;;;;15.98;7.72;;;;;;;18.08;67.57;100588.00;5061424;28;20044;-66
2021/08/14 04:17:46;;;;;;;18.55;8.23;;;;;;;18.13;67.50;100589.84;5073237;28;20052;-66
2021/08/14 04:20:14;;;;;;;19.23;8.70;;;;;;;18.12;67.44;100611.63;5072445;28;20048;-66
2021/08/14 04:22:41;;;;;;;20.70;9.82;;;;;;;18.14;67.36;100609.28;5072291;28;20133;-66
2021/08/14 04:25:08;;;;;;;16.67;8.75;;;;;;;18.11;67.72;100587.34;5073415;28;20123;-65
2021/08/14 04:27:35;;;;;;;20.38;9.68;;;;;;;18.14;67.83;100592.31;5073291;28;20083;-66
2021/08/14 04:30:03;;;;;;;18.30;9.27;;;;;;;18.17;67.83;100590.84;5072126;28;20131;-66
2021/08/14 04:32:36;;;;;;;20.48;8.52;;;;;;;18.18;67.49;100598.16;5073416;28;20127;-66
2021/08/14 04:35:05;;;;;;;18.92;8.35;;;;;;;18.03;67.43;100574.03;5073210;28;20140;-66
2021/08/14 04:37:32;;;;;;;18.10;8.55;;;;;;;18.02;67.64;100572.38;5058159;28;20119;-66
2021/08/14 04:40:00;;;;;;;19.33;7.45;;;;;;;18.12;67.84;100586.19;5053288;28;20136;-66
2021/08/14 04:42:29;;;;;;;15.77;7.93;;;;;;;18.12;67.79;100590.97;5035942;28;20115;-67
2021/08/14 04:44:56;;;;;;;19.15;8.02;;;;;;;18.11;67.52;100587.34;5066960;28;20131;-66
2021/08/14 04:47:23;;;;;;;36.65;10.32;;;;;;;18.10;67.53;100593.31;5053513;28;20128;-66
2021/08/14 04:49:50;;;;;;;20.67;8.32;;;;;;;17.99;67.68;100584.34;5072897;28;20084;-65
2021/08/14 04:52:16;;;;;;;14.10;7.32;;;;;;;18.02;67.79;100592.16;5073061;28;20128;-66
2021/08/14 04:54:44;;;;;;;24.40;8.40;;;;;;;18.04;67.93;100592.63;5056531;28;20461;-66
2021/08/14 04:57:11;;;;;;;67.90;8.43;;;;;;;17.95;68.12;100595.47;5051764;28;20049;-66
2021/08/14 04:59:37;;;;;;;45.95;9.27;;;;;;;17.75;68.55;100596.88;5061204;28;20128;-66
2021/08/14 05:02:04;;;;;;;58.90;9.52;;;;;;;17.78;68.97;100601.06;5072616;28;20080;-66
2021/08/14 05:04:33;;;;;;;59.40;10.85;;;;;;;17.76;68.92;100589.25;5072467;28;20052;-65
2021/08/14 05:07:00;;;;;;;65.47;11.82;;;;;;;17.77;69.46;100583.28;5072779;28;20110;-65
2021/08/14 05:09:27;;;;;;;58.58;10.13;;;;;;;17.65;69.35;100568.94;5071274;28;20132;-66
2021/08/14 05:11:54;;;;;;;76.15;11.93;;;;;;;17.59;69.73;100556.13;5054262;28;20123;-66
2021/08/14 05:14:21;;;;;;;80.75;12.38;;;;;;;17.86;69.78;100576.81;5052648;28;20123;-66
2021/08/14 05:16:48;;;;;;;114.53;19.15;;;;;;;17.91;69.56;100582.31;5052353;28;20049;-65
2021/08/14 05:19:15;;;;;;;74.80;13.07;;;;;;;17.87;69.62;100570.00;5052655;28;20095;-65
2021/08/14 05:21:41;;;;;;;69.97;10.75;;;;;;;17.87;69.79;100584.97;5052399;28;20132;-66
2021/08/14 05:24:08;;;;;;;53.75;11.05;;;;;;;17.85;69.61;100576.00;5061202;28;20068;-66
2021/08/14 05:26:35;;;;;;;20.65;8.57;;;;;;;17.80;70.14;100583.78;5072238;28;20131;-66
2021/08/14 05:29:02;;;;;;;18.10;9.00;;;;;;;17.78;70.03;100592.59;5053210;28;20049;-66
2021/08/14 05:31:29;;;;;;;21.05;8.45;;;;;;;17.79;69.75;100582.13;5052056;28;20131;-66
2021/08/14 05:34:01;;;;;;;23.50;9.35;;;;;;;17.81;70.04;100593.91;5051924;28;20098;-66
2021/08/14 05:36:29;;;;;;;19.70;7.97;;;;;;;17.82;69.83;100592.78;5058566;28;20072;-66
2021/08/14 05:38:56;;;;;;;19.63;9.48;;;;;;;17.66;69.80;100570.59;5070731;28;20048;-66
2021/08/14 05:41:23;;;;;;;23.30;8.40;;;;;;;17.83;69.74;100586.78;5072198;28;20480;-66
2021/08/14 05:43:50;;;;;;;17.65;9.05;;;;;;;17.97;69.67;100612.06;5071900;28;20448;-66
2021/08/14 05:46:17;;;;;;;22.83;9.05;;;;;;;17.96;69.65;100613.25;5052298;28;20128;-66
2021/08/14 05:48:44;;;;;;;39.20;11.93;;;;;;;17.77;69.85;100594.56;5044873;28;20545;-65
2021/08/14 05:51:12;;;;;;;80.72;13.15;;;;;;;17.97;69.76;100626.22;5070607;28;20139;-66
2021/08/14 05:53:42;;;;;;;49.30;10.93;;;;;;;17.88;69.32;100622.50;5071753;28;20131;-66
2021/08/14 05:56:09;;;;;;;45.63;10.13;;;;;;;17.93;69.83;100644.97;5071306;28;20056;-66
2021/08/14 05:58:36;;;;;;;106.75;17.02;;;;;;;17.84;69.73;100644.09;5071851;28;20058;-66
2021/08/14 06:01:03;;;;;;;114.97;15.52;;;;;;;17.90;69.53;100646.47;5068206;28;20507;-66
2021/08/14 06:03:35;;;;;;;87.35;11.40;;;;;;;17.87;69.57;100637.81;5057121;28;20098;-66
2021/08/14 06:06:02;;;;;;;121.90;11.52;;;;;;;17.81;69.70;100639.13;5071780;28;20151;-65
2021/08/14 06:08:31;;;;;;;285.08;21.83;;;;;;;17.79;70.20;100649.94;5071903;28;20511;-66
2021/08/14 06:10:58;;;;;;;257.73;21.58;;;;;;;17.65;69.93;100639.53;5070645;28;20135;-66
2021/08/14 06:13:25;;;;;;;257.17;21.25;;;;;;;17.65;69.98;100645.19;5071760;28;20099;-66
2021/08/14 06:15:52;;;;;;;191.75;17.90;;;;;;;17.73;70.27;100647.19;5071611;28;20083;-65
2021/08/14 06:18:19;;;;;;;224.25;18.13;;;;;;;17.70;70.43;100652.66;5065878;28;20107;-66
2021/08/14 06:20:45;;;;;;;208.02;15.75;;;;;;;17.60;71.12;100639.66;5051732;28;20077;-66
2021/08/14 06:23:12;;;;;;;229.95;18.25;;;;;;;17.70;71.09;100667.63;5051874;28;20076;-65
2021/08/14 06:25:39;;;;;;;222.18;22.27;;;;;;;17.73;71.11;100666.97;5054330;28;20087;-65
2021/08/14 06:28:06;;;;;;;226.77;20.08;;;;;;;17.64;71.13;100654.81;5062212;28;20072;-66
2021/08/14 06:30:33;;;;;;;131.23;13.45;;;;;;;17.60;71.01;100634.03;5075582;28;20091;-65
2021/08/14 06:33:00;;;;;;;156.98;14.52;;;;;;;17.84;71.23;100666.72;5053097;28;20045;-65
2021/08/14 06:35:27;;;;;;;140.07;15.10;;;;;;;17.91;71.19;100672.72;5043703;28;20139;-65
2021/08/14 06:37:54;;;;;;;197.93;17.02;;;;;;;17.96;71.64;100676.25;5073829;28;20139;-66
2021/08/14 06:40:20;;;;;;;257.42;20.45;;;;;;;17.97;71.42;100675.06;5075424;28;20136;-66
2021/08/14 06:42:47;;;;;;;181.05;16.23;;;;;;;18.12;71.75;100678.59;5057795;28;20072;-65
2021/08/14 06:45:15;;;;;;;137.35;14.73;;;;;;;17.90;71.82;100637.16;5075411;28;20075;-65
2021/08/14 06:47:42;;;;;;;151.35;16.67;;;;;;;18.23;71.81;100686.44;5095659;28;20139;-66
2021/08/14 06:50:09;;;;;;;141.02;14.38;;;;;;;18.22;72.09;100683.94;5083148;28;20460;-66
2021/08/14 06:52:36;;;;;;;163.35;14.80;;;;;;;18.27;72.14;100697.94;5050557;28;20083;-65
2021/08/14 06:55:04;;;;;;;88.90;12.75;;;;;;;18.32;72.00;100709.06;5068527;28;20389;-65
2021/08/14 06:57:31;;;;;;;142.75;14.95;;;;;;;18.43;72.32;100718.94;5074889;28;20079;-65
2021/08/14 06:59:58;;;;;;;112.25;14.23;;;;;;;18.50;72.27;100718.44;5074728;28;20076;-66
2021/08/14 07:02:25;;;;;;;92.25;13.40;;;;;;;18.58;72.40;100714.78;5074813;28;20079;-65
2021/08/14 07:04:52;;;;;;;111.35;13.15;;;;;;;18.65;72.04;100717.97;5058344;28;20067;-65
2021/08/14 07:07:19;;;;;;;59.20;12.77;;;;;;;18.77;72.30;100724.97;5037340;28;20168;-64
2021/08/14 07:09:46;;;;;;;91.25;12.95;;;;;;;18.88;72.33;100730.00;5045563;28;20128;-64
2021/08/14 07:12:14;;;;;;;73.18;12.10;;;;;;;18.98;72.22;100725.19;5034821;28;20080;-64
2021/08/14 07:14:41;;;;;;;71.95;11.63;;;;;;;19.07;72.41;100731.66;5034432;28;20132;-64
2021/08/14 07:17:08;;;;;;;54.20;11.13;;;;;;;19.19;72.34;100740.31;5034344;28;20605;-64
2021/08/14 07:19:35;;;;;;;35.42;10.60;;;;;;;19.29;72.15;100736.31;5034454;28;20046;-64
2021/08/14 07:22:02;;;;;;;34.97;12.15;;;;;;;19.23;72.26;100717.81;5035003;28;20124;-64
2021/08/14 07:24:29;;;;;;;39.28;12.25;;;;;;;19.44;72.23;100735.78;5050305;28;20124;-64
2021/08/14 07:26:57;;;;;;;64.55;12.02;;;;;;;19.39;71.79;100716.13;5035829;28;20098;-64
2021/08/14 07:29:25;;;;;;;30.33;11.32;;;;;;;19.56;71.89;100693.44;5053255;28;20136;-64
2021/08/14 07:31:52;;;;;;;24.50;11.32;;;;;;;19.90;71.67;100734.19;5054674;28;20076;-64
2021/08/14 07:34:19;;;;;;;25.92;10.70;;;;;;;20.05;71.67;100727.13;5053436;28;20435;-64
2021/08/14 07:36:46;;;;;;;26.42;12.13;;;;;;;20.05;71.62;100665.56;5036128;28;20136;-64
2021/08/14 07:39:13;;;;;;;29.58;11.85;;;;;;;20.50;71.09;100716.03;5054328;28;20053;-64
2021/08/14 07:41:40;;;;;;;28.45;12.45;;;;;;;20.61;70.81;100732.66;5053088;28;20135;-63
2021/08/14 07:44:07;;;;;;;22.98;10.13;;;;;;;20.63;70.52;100714.13;5042808;28;20081;-64
2021/08/14 07:46:47;;;;;;;20.33;10.90;;;;;;;20.70;69.81;100722.09;5034278;28;20132;-65
2021/08/14 07:49:14;;;;;;;18.38;10.00;;;;;;;20.64;69.60;100709.28;5033132;28;20042;-64
2021/08/14 07:51:41;;;;;;;27.77;12.85;;;;;;;20.71;69.14;100701.88;5034101;28;20493;-64
2021/08/14 07:54:08;;;;;;;45.58;12.13;;;;;;;20.59;68.93;100691.28;5041033;28;20059;-64
2021/08/14 07:56:35;;;;;;;27.58;12.55;;;;;;;20.72;68.94;100720.59;5036484;28;20099;-64
2021/08/14 07:59:02;;;;;;;25.65;13.07;;;;;;;20.79;68.89;100705.84;5054028;28;20457;-63
2021/08/14 08:01:29;;;;;;;36.65;14.73;;;;;;;21.04;68.78;100716.13;5068189;28;20131;-64
2021/08/14 08:03:56;;;;;;;34.45;14.73;;;;;;;21.10;68.70;100701.75;5074162;28;20045;-64
2021/08/14 08:06:22;;;;;;;25.77;14.23;;;;;;;21.44;68.86;100721.31;5072549;28;20127;-64
2021/08/14 08:08:49;;;;;;;28.83;13.60;;;;;;;21.69;68.24;100701.47;5073677;28;20106;-64
2021/08/14 08:11:16;;;;;;;26.70;14.20;;;;;;;22.40;66.97;100715.28;5073590;28;20091;-64
2021/08/14 08:13:43;;;;;;;27.75;13.77;;;;;;;22.89;65.35;100712.34;5055690;28;20071;-64
2021/08/14 08:16:10;;;;;;;22.73;12.48;;;;;;;23.24;64.15;100716.66;5072305;28;20131;-64
2021/08/14 08:18:37;;;;;;;19.42;11.02;;;;;;;23.74;62.83;100735.19;5047493;28;20044;-64
2021/08/14 08:21:04;;;;;;;22.38;12.50;;;;;;;24.26;61.82;100729.22;5073489;28;20128;-64
2021/08/14 08:23:31;;;;;;;24.95;13.80;;;;;;;24.60;60.85;100669.72;5073242;28;20132;-64
2021/08/14 08:25:58;;;;;;;23.30;12.95;;;;;;;25.32;59.55;100700.66;5073577;28;20227;-64
2021/08/14 08:28:25;;;;;;;24.17;13.38;;;;;;;25.63;58.78;100702.50;5072530;28;20095;-64
2021/08/14 08:30:52;;;;;;;25.73;13.73;;;;;;;25.85;57.71;100709.50;5056034;28;20068;-64
2021/08/14 08:33:19;;;;;;;22.52;13.50;;;;;;;25.78;57.17;100729.34;5073044;28;20086;-64
2021/08/14 08:35:46;;;;;;;29.95;16.13;;;;;;;25.84;56.64;100735.59;5056148;28;20564;-64
2021/08/14 08:38:13;;;;;;;23.38;14.05;;;;;;;25.97;56.49;100745.66;5052996;28;20053;-64
2021/08/14 08:40:42;;;;;;;24.02;13.57;;;;;;;26.00;56.31;100744.91;5054727;28;20144;-64
2021/08/14 08:43:09;;;;;;;25.13;14.00;;;;;;;26.56;55.67;100744.22;5073024;28;20052;-64
2021/08/14 08:45:35;;;;;;;25.48;14.10;;;;;;;26.55;55.03;100715.97;5072862;28;20132;-64
2021/08/14 08:48:04;;;;;;;24.73;14.45;;;;;;;26.36;55.25;100714.00;5071395;28;20049;-64
2021/08/14 08:50:31;;;;;;;25.73;14.68;;;;;;;26.35;55.11;100712.38;5073026;28;20084;-64
2021/08/14 08:52:59;;;;;;;23.98;13.82;;;;;;;26.63;54.39;100723.47;5070829;28;20087;-62
2021/08/14 08:55:26;;;;;;;26.08;13.73;;;;;;;27.01;53.42;100722.41;5072759;28;20072;-64
2021/08/14 08:57:52;;;;;;;22.25;13.05;;;;;;;27.34;52.73;100717.91;5072620;28;20135;-64
2021/08/14 09:00:19;;;;;;;23.73;12.52;;;;;;;27.46;52.23;100720.53;5073046;28;20044;-64
2021/08/14 09:03:05;;;;;;;24.70;12.55;;;;;;;27.42;52.01;100716.81;5072826;28;20052;-64
2021/08/14 09:05:32;;;;;;;22.85;12.85;;;;;;;27.70;51.41;100701.94;5071669;28;20056;-65
2021/08/14 09:08:09;;;;;;;18.48;11.40;;;;;;;28.05;50.76;100701.47;5070537;28;20136;-65
2021/08/14 09:10:37;;;;;;;17.25;10.63;;;;;;;28.30;49.77;100700.84;5051646;28;20072;-64
2021/08/14 09:13:33;;;;;;;19.27;10.75;;;;;;;28.37;50.31;100702.97;5039790;28;20567;-64
2021/08/14 09:16:20;;;;;;;18.80;11.55;;;;;;;28.83;49.61;100694.69;5035851;28;20411;-65
2021/08/14 09:18:59;;;;;;;17.63;11.00;;;;;;;29.27;48.36;100705.19;5052388;28;20053;-65
2021/08/14 09:21:40;;;;;;;22.42;10.77;;;;;;;29.57;47.85;100696.22;5062306;28;20136;-64
2021/08/14 09:24:08;;;;;;;17.85;10.20;;;;;;;29.88;46.95;100688.94;5071111;28;20127;-66
2021/08/14 09:26:38;;;;;;;18.50;11.02;;;;;;;30.00;46.17;100687.69;5057338;28;20056;-64
2021/08/14 09:29:06;;;;;;;16.38;10.95;;;;;;;30.20;46.18;100682.38;5052213;28;20519;-63
2021/08/14 09:31:49;;;;;;;17.13;9.93;;;;;;;30.36;45.89;100694.31;5066449;28;20131;-64
2021/08/14 09:34:17;;;;;;;19.70;10.77;;;;;;;30.62;45.47;100713.22;5067237;28;20056;-64
2021/08/14 09:36:44;;;;;;;16.40;9.77;;;;;;;30.81;45.30;100711.16;5068717;28;20079;-64
2021/08/14 09:39:11;;;;;;;21.42;10.75;;;;;;;30.99;44.65;100725.53;5072026;28;20132;-65
2021/08/14 09:41:37;;;;;;;16.83;10.70;;;;;;;31.08;44.26;100689.22;5071182;28;20472;-64
2021/08/14 09:44:13;;;;;;;17.38;10.48;;;;;;;31.17;44.00;100711.84;5053156;28;20045;-64
2021/08/14 09:46:42;;;;;;;19.23;11.45;;;;;;;31.22;43.80;100714.31;5052023;28;20084;-64
2021/08/14 09:49:10;;;;;;;20.85;12.65;;;;;;;31.33;43.83;100731.59;5051865;28;20045;-65
2021/08/14 09:51:37;;;;;;;21.25;12.70;;;;;;;31.27;43.36;100710.97;5070835;28;20044;-64
2021/08/14 09:54:05;;;;;;;23.30;12.75;;;;;;;31.56;42.65;100736.88;5083120;28;20571;-64
2021/08/14 09:56:35;;;;;;;23.02;12.23;;;;;;;31.86;42.24;100736.25;5092299;28;20143;-63
2021/08/14 09:59:06;;;;;;;22.52;11.48;;;;;;;32.24;41.96;100736.41;5073362;28;20147;-63
2021/08/14 10:01:36;;;;;;;20.63;12.93;;;;;;;32.56;41.01;100739.06;5038852;28;20127;-65
2021/08/14 10:04:04;;;;;;;24.02;12.18;;;;;;;32.65;40.75;100733.63;5056197;28;20513;-64
2021/08/14 10:06:32;;;;;;;22.48;11.82;;;;;;;32.96;40.55;100736.63;5075688;28;20087;-64
2021/08/14 10:08:59;;;;;;;27.37;13.83;;;;;;;32.82;40.48;100719.38;5076423;28;20463;-65
2021/08/14 10:11:26;;;;;;;26.88;13.80;;;;;;;32.78;39.82;100699.16;5075667;28;20147;-65
2021/08/14 10:13:53;;;;;;;24.33;12.57;;;;;;;33.04;39.88;100741.06;5056425;28;20466;-64
2021/08/14 10:16:20;;;;;;;24.05;11.13;;;;;;;33.03;39.96;100724.97;5060234;28;20060;-64
2021/08/14 10:18:50;;;;;;;17.70;10.45;;;;;;;33.57;39.44;100741.69;5075970;28;20170;-63
2021/08/14 10:21:17;;;;;;;18.85;10.38;;;;;;;33.89;38.73;100723.84;5074737;28;20075;-64
2021/08/14 10:23:45;;;;;;;17.20;10.73;;;;;;;34.33;38.38;100730.63;5075765;28;20124;-64
2021/08/14 10:26:16;;;;;;;15.05;9.18;;;;;;;34.51;37.43;100725.34;5075458;28;20056;-64
2021/08/14 10:28:47;;;;;;;21.45;10.30;;;;;;;34.57;37.37;100729.38;5074799;28;20127;-64
2021/08/14 10:31:30;;;;;;;17.50;10.07;;;;;;;34.82;37.48;100731.81;5075505;28;20131;-64
2021/08/14 10:34:11;;;;;;;15.57;9.27;;;;;;;35.00;37.17;100733.53;5065174;28;20048;-62
2021/08/14 10:36:40;;;;;;;15.38;9.93;;;;;;;34.35;37.07;100734.69;5063986;28;20083;-62
2021/08/14 10:39:20;;;;;;;17.52;10.43;;;;;;;34.09;37.59;100718.19;5075158;28;20045;-63
2021/08/14 10:41:50;;;;;;;15.13;8.15;;;;;;;34.19;37.48;100731.69;5074454;28;20147;-63
2021/08/14 10:44:38;;;;;;;11.55;8.57;;;;;;;34.32;37.56;100731.88;5074640;28;20087;-63
2021/08/14 10:47:06;;;;;;;;;;;;;;;34.18;39.25;100730.84;5074343;28;20079;-63
2021/08/14 10:49:32;;;;;;;15.57;9.05;;;;;;;34.60;37.29;100728.50;5075210;28;20007;-63
2021/08/14 10:52:02;;;;;;;13.43;8.38;;;;;;;34.86;36.84;100720.13;5056399;28;20132;-64
2021/08/14 10:54:35;;;;;;;15.55;9.10;;;;;;;35.03;36.08;100730.59;5054893;28;20098;-64
2021/08/14 10:57:09;;;;;;;13.05;8.27;;;;;;;35.14;36.17;100722.50;5055325;28;20538;-64
2021/08/14 10:59:39;;;;;;;19.88;9.55;;;;;;;35.22;35.97;100734.78;5074955;28;20087;-64
2021/08/14 11:02:06;;;;;;;17.33;10.52;;;;;;;35.13;35.79;100744.09;5074298;28;20087;-63
2021/08/14 11:04:54;;;;;;;15.55;9.65;;;;;;;35.65;34.34;100727.25;5075362;28;20048;-63
2021/08/14 11:07:21;;;;;;;16.45;10.13;;;;;;;36.16;33.77;100771.34;5072707;28;20045;-63
2021/08/14 11:09:53;;;;;;;16.42;9.85;;;;;;;35.94;33.90;100768.91;5074244;28;20041;-64
2021/08/14 11:12:36;;;;;;;15.23;9.60;;;;;;;35.45;34.05;100753.38;5074607;28;20135;-64
2021/08/14 11:15:24;;;;;;;16.25;8.68;;;;;;;34.67;34.11;100760.28;5073594;28;20127;-64
2021/08/14 11:17:58;;;;;;;18.17;8.70;;;;;;;34.20;34.43;100739.94;5073668;28;20048;-64